sensor_id;sensor_type;location;lat;lon;timestamp;P1;durP1;ratioP1;P2;durP2;ratioP2
21181;SDS011;10749;46.296;7.524;2023-02-22T00:00:16;4.37;;;2.10;;
21181;SDS011;10749;46.296;7.524;2023-02-22T00:02:44;4.27;;;2.13;;
21181;SDS011;10749;46.296;7.524;2023-02-22T00:05:16;4.20;;;2.13;;
21181;SDS011;10749;46.296;7.524;2023-02-22T00:07:46;5.03;;;2.40;;
21181;SDS011;10749;46.296;7.524;2023-02-22T00:10:12;3.47;;;2.20;;
21181;SDS011;10749;46.296;7.524;2023-02-22T00:12:39;4.87;;;2.40;;
21181;SDS011;10749;46.296;7.524;2023-02-22T00:15:06;6.17;;;2.40;;
21181;SDS011;10749;46.296;7.524;2023-02-22T00:17:32;3.00;;;2.03;;
21181;SDS011;10749;46.296;7.524;2023-02-22T00:19:58;4.37;;;2.33;;
21181;SDS011;10749;46.296;7.524;2023-02-22T00:22:23;3.10;;;2.13;;
21181;SDS011;10749;46.296;7.524;2023-02-22T00:24:48;2.60;;;1.77;;
21181;SDS011;10749;46.296;7.524;2023-02-22T00:27:14;4.37;;;1.93;;
21181;SDS011;10749;46.296;7.524;2023-02-22T00:29:43;3.03;;;1.80;;
21181;SDS011;10749;46.296;7.524;2023-02-22T00:32:10;3.40;;;1.70;;
21181;SDS011;10749;46.296;7.524;2023-02-22T00:34:35;4.47;;;1.70;;
21181;SDS011;10749;46.296;7.524;2023-02-22T00:37:00;4.90;;;1.90;;
21181;SDS011;10749;46.296;7.524;2023-02-22T00:39:28;3.13;;;1.60;;
21181;SDS011;10749;46.296;7.524;2023-02-22T00:41:54;4.03;;;1.80;;
21181;SDS011;10749;46.296;7.524;2023-02-22T00:44:19;3.23;;;1.40;;
21181;SDS011;10749;46.296;7.524;2023-02-22T00:46:45;3.50;;;2.07;;
21181;SDS011;10749;46.296;7.524;2023-02-22T00:49:10;2.83;;;2.13;;
21181;SDS011;10749;46.296;7.524;2023-02-22T00:51:35;4.77;;;1.90;;
21181;SDS011;10749;46.296;7.524;2023-02-22T00:54:00;7.80;;;2.07;;
21181;SDS011;10749;46.296;7.524;2023-02-22T00:56:26;2.50;;;1.80;;
21181;SDS011;10749;46.296;7.524;2023-02-22T00:58:51;4.20;;;1.80;;
21181;SDS011;10749;46.296;7.524;2023-02-22T01:01:16;5.30;;;2.10;;
21181;SDS011;10749;46.296;7.524;2023-02-22T01:03:42;3.33;;;2.30;;
21181;SDS011;10749;46.296;7.524;2023-02-22T01:06:07;4.63;;;2.10;;
21181;SDS011;10749;46.296;7.524;2023-02-22T01:08:32;6.17;;;2.17;;
21181;SDS011;10749;46.296;7.524;2023-02-22T01:10:58;4.03;;;2.20;;
21181;SDS011;10749;46.296;7.524;2023-02-22T01:13:23;6.47;;;2.20;;
21181;SDS011;10749;46.296;7.524;2023-02-22T01:15:49;7.40;;;2.30;;
21181;SDS011;10749;46.296;7.524;2023-02-22T01:18:15;3.07;;;1.97;;
21181;SDS011;10749;46.296;7.524;2023-02-22T01:20:41;4.20;;;1.97;;
21181;SDS011;10749;46.296;7.524;2023-02-22T01:23:11;3.70;;;1.83;;
21181;SDS011;10749;46.296;7.524;2023-02-22T01:25:37;3.67;;;1.60;;
21181;SDS011;10749;46.296;7.524;2023-02-22T01:28:04;2.83;;;1.73;;
21181;SDS011;10749;46.296;7.524;2023-02-22T01:30:31;2.63;;;1.40;;
21181;SDS011;10749;46.296;7.524;2023-02-22T01:32:58;3.63;;;1.50;;
21181;SDS011;10749;46.296;7.524;2023-02-22T01:35:27;3.07;;;1.40;;
21181;SDS011;10749;46.296;7.524;2023-02-22T01:37:56;2.73;;;1.20;;
21181;SDS011;10749;46.296;7.524;2023-02-22T01:40:27;2.87;;;1.07;;
21181;SDS011;10749;46.296;7.524;2023-02-22T01:42:58;2.67;;;1.30;;
21181;SDS011;10749;46.296;7.524;2023-02-22T01:48:04;2.80;;;1.10;;
21181;SDS011;10749;46.296;7.524;2023-02-22T01:50:30;2.40;;;1.40;;
21181;SDS011;10749;46.296;7.524;2023-02-22T01:52:59;1.63;;;1.23;;
21181;SDS011;10749;46.296;7.524;2023-02-22T01:55:25;3.20;;;1.30;;
21181;SDS011;10749;46.296;7.524;2023-02-22T01:57:51;4.53;;;1.90;;
21181;SDS011;10749;46.296;7.524;2023-02-22T02:00:18;3.03;;;1.40;;
21181;SDS011;10749;46.296;7.524;2023-02-22T02:02:49;2.93;;;1.30;;
21181;SDS011;10749;46.296;7.524;2023-02-22T02:05:18;2.93;;;1.30;;
21181;SDS011;10749;46.296;7.524;2023-02-22T02:07:44;2.10;;;1.20;;
21181;SDS011;10749;46.296;7.524;2023-02-22T02:10:11;2.90;;;1.30;;
21181;SDS011;10749;46.296;7.524;2023-02-22T02:12:40;2.63;;;1.40;;
21181;SDS011;10749;46.296;7.524;2023-02-22T02:17:55;3.03;;;1.20;;
21181;SDS011;10749;46.296;7.524;2023-02-22T02:25:57;2.90;;;1.30;;
21181;SDS011;10749;46.296;7.524;2023-02-22T02:28:38;3.47;;;1.30;;
21181;SDS011;10749;46.296;7.524;2023-02-22T02:37:01;3.23;;;1.30;;
21181;SDS011;10749;46.296;7.524;2023-02-22T02:42:06;4.50;;;1.00;;
21181;SDS011;10749;46.296;7.524;2023-02-22T02:45:19;1.70;;;0.87;;
21181;SDS011;10749;46.296;7.524;2023-02-22T02:47:29;1.40;;;0.80;;
21181;SDS011;10749;46.296;7.524;2023-02-22T02:52:39;5.43;;;1.17;;
21181;SDS011;10749;46.296;7.524;2023-02-22T02:55:05;4.27;;;1.30;;
21181;SDS011;10749;46.296;7.524;2023-02-22T02:57:33;2.33;;;1.23;;
21181;SDS011;10749;46.296;7.524;2023-02-22T02:59:58;3.97;;;1.30;;
21181;SDS011;10749;46.296;7.524;2023-02-22T03:24:17;2.27;;;1.20;;
21181;SDS011;10749;46.296;7.524;2023-02-22T03:27:02;3.60;;;1.50;;
21181;SDS011;10749;46.296;7.524;2023-02-22T03:29:33;1.57;;;1.00;;
21181;SDS011;10749;46.296;7.524;2023-02-22T03:32:04;1.50;;;1.03;;
21181;SDS011;10749;46.296;7.524;2023-02-22T03:34:33;1.27;;;0.90;;
21181;SDS011;10749;46.296;7.524;2023-02-22T03:37:06;1.60;;;1.07;;
21181;SDS011;10749;46.296;7.524;2023-02-22T03:39:38;2.40;;;1.00;;
21181;SDS011;10749;46.296;7.524;2023-02-22T03:42:07;1.80;;;1.10;;
21181;SDS011;10749;46.296;7.524;2023-02-22T03:44:36;1.60;;;0.90;;
21181;SDS011;10749;46.296;7.524;2023-02-22T03:47:05;1.30;;;1.00;;
21181;SDS011;10749;46.296;7.524;2023-02-22T03:49:48;2.07;;;1.13;;
21181;SDS011;10749;46.296;7.524;2023-02-22T03:52:17;1.43;;;0.90;;
21181;SDS011;10749;46.296;7.524;2023-02-22T03:54:43;1.83;;;1.20;;
21181;SDS011;10749;46.296;7.524;2023-02-22T03:57:11;3.27;;;1.00;;
21181;SDS011;10749;46.296;7.524;2023-02-22T03:59:41;3.90;;;1.20;;
21181;SDS011;10749;46.296;7.524;2023-02-22T04:02:07;2.23;;;1.10;;
21181;SDS011;10749;46.296;7.524;2023-02-22T04:04:32;2.13;;;0.80;;
21181;SDS011;10749;46.296;7.524;2023-02-22T04:06:57;4.00;;;1.30;;
21181;SDS011;10749;46.296;7.524;2023-02-22T04:09:23;1.80;;;1.00;;
21181;SDS011;10749;46.296;7.524;2023-02-22T04:11:49;2.57;;;1.00;;
21181;SDS011;10749;46.296;7.524;2023-02-22T04:14:14;2.10;;;1.10;;
21181;SDS011;10749;46.296;7.524;2023-02-22T04:16:39;1.10;;;1.00;;
21181;SDS011;10749;46.296;7.524;2023-02-22T04:19:05;2.23;;;1.17;;
21181;SDS011;10749;46.296;7.524;2023-02-22T04:21:30;1.57;;;1.10;;
21181;SDS011;10749;46.296;7.524;2023-02-22T04:23:56;1.93;;;1.00;;
21181;SDS011;10749;46.296;7.524;2023-02-22T04:26:22;3.67;;;1.27;;
21181;SDS011;10749;46.296;7.524;2023-02-22T04:28:47;1.37;;;0.87;;
21181;SDS011;10749;46.296;7.524;2023-02-22T04:31:12;3.93;;;0.97;;
21181;SDS011;10749;46.296;7.524;2023-02-22T04:33:37;1.60;;;1.10;;
21181;SDS011;10749;46.296;7.524;2023-02-22T04:36:03;2.20;;;1.00;;
21181;SDS011;10749;46.296;7.524;2023-02-22T04:38:28;1.53;;;0.97;;
21181;SDS011;10749;46.296;7.524;2023-02-22T04:40:54;1.00;;;0.80;;
21181;SDS011;10749;46.296;7.524;2023-02-22T04:43:19;2.90;;;0.80;;
21181;SDS011;10749;46.296;7.524;2023-02-22T04:45:45;1.43;;;0.97;;
21181;SDS011;10749;46.296;7.524;2023-02-22T04:48:10;1.83;;;0.90;;
21181;SDS011;10749;46.296;7.524;2023-02-22T04:50:36;2.97;;;0.90;;
21181;SDS011;10749;46.296;7.524;2023-02-22T04:53:01;2.27;;;0.93;;
21181;SDS011;10749;46.296;7.524;2023-02-22T04:55:27;1.77;;;0.90;;
21181;SDS011;10749;46.296;7.524;2023-02-22T04:57:53;2.93;;;0.90;;
21181;SDS011;10749;46.296;7.524;2023-02-22T05:00:19;2.03;;;0.80;;
21181;SDS011;10749;46.296;7.524;2023-02-22T05:02:45;4.33;;;1.10;;
21181;SDS011;10749;46.296;7.524;2023-02-22T05:05:12;2.50;;;0.90;;
21181;SDS011;10749;46.296;7.524;2023-02-22T05:07:38;1.40;;;0.90;;
21181;SDS011;10749;46.296;7.524;2023-02-22T05:10:04;3.23;;;1.03;;
21181;SDS011;10749;46.296;7.524;2023-02-22T05:12:29;2.77;;;1.07;;
21181;SDS011;10749;46.296;7.524;2023-02-22T05:14:55;2.73;;;1.03;;
21181;SDS011;10749;46.296;7.524;2023-02-22T05:17:20;1.37;;;0.90;;
21181;SDS011;10749;46.296;7.524;2023-02-22T05:19:45;4.47;;;0.90;;
21181;SDS011;10749;46.296;7.524;2023-02-22T05:22:11;3.57;;;1.10;;
21181;SDS011;10749;46.296;7.524;2023-02-22T05:24:36;1.67;;;1.03;;
21181;SDS011;10749;46.296;7.524;2023-02-22T05:27:02;4.37;;;1.40;;
21181;SDS011;10749;46.296;7.524;2023-02-22T05:29:27;2.50;;;1.30;;
21181;SDS011;10749;46.296;7.524;2023-02-22T05:31:53;1.87;;;1.20;;
21181;SDS011;10749;46.296;7.524;2023-02-22T05:34:18;3.67;;;1.40;;
21181;SDS011;10749;46.296;7.524;2023-02-22T05:36:43;1.97;;;1.00;;
21181;SDS011;10749;46.296;7.524;2023-02-22T05:39:10;2.90;;;1.40;;
21181;SDS011;10749;46.296;7.524;2023-02-22T05:41:36;2.57;;;0.97;;
21181;SDS011;10749;46.296;7.524;2023-02-22T05:44:01;2.60;;;1.30;;
21181;SDS011;10749;46.296;7.524;2023-02-22T05:46:27;2.00;;;1.30;;
21181;SDS011;10749;46.296;7.524;2023-02-22T05:48:52;4.97;;;1.23;;
21181;SDS011;10749;46.296;7.524;2023-02-22T05:51:17;3.27;;;1.30;;
21181;SDS011;10749;46.296;7.524;2023-02-22T05:53:43;5.10;;;1.40;;
21181;SDS011;10749;46.296;7.524;2023-02-22T05:56:08;2.80;;;1.20;;
21181;SDS011;10749;46.296;7.524;2023-02-22T05:58:34;2.13;;;1.10;;
21181;SDS011;10749;46.296;7.524;2023-02-22T06:00:59;3.07;;;0.80;;
21181;SDS011;10749;46.296;7.524;2023-02-22T06:03:24;3.43;;;1.33;;
21181;SDS011;10749;46.296;7.524;2023-02-22T06:05:50;2.77;;;1.40;;
21181;SDS011;10749;46.296;7.524;2023-02-22T06:08:15;3.70;;;1.20;;
21181;SDS011;10749;46.296;7.524;2023-02-22T06:10:42;1.90;;;1.10;;
21181;SDS011;10749;46.296;7.524;2023-02-22T06:13:08;3.37;;;1.40;;
21181;SDS011;10749;46.296;7.524;2023-02-22T06:15:33;2.20;;;1.20;;
21181;SDS011;10749;46.296;7.524;2023-02-22T06:17:58;2.47;;;1.30;;
21181;SDS011;10749;46.296;7.524;2023-02-22T06:20:26;1.97;;;1.23;;
21181;SDS011;10749;46.296;7.524;2023-02-22T06:22:55;3.10;;;1.50;;
21181;SDS011;10749;46.296;7.524;2023-02-22T06:25:23;2.23;;;1.30;;
21181;SDS011;10749;46.296;7.524;2023-02-22T06:27:50;2.40;;;1.37;;
21181;SDS011;10749;46.296;7.524;2023-02-22T06:30:18;2.70;;;1.37;;
21181;SDS011;10749;46.296;7.524;2023-02-22T06:32:46;3.57;;;1.47;;
21181;SDS011;10749;46.296;7.524;2023-02-22T06:35:11;3.33;;;1.20;;
21181;SDS011;10749;46.296;7.524;2023-02-22T06:37:38;3.93;;;1.70;;
21181;SDS011;10749;46.296;7.524;2023-02-22T06:40:03;4.73;;;1.57;;
21181;SDS011;10749;46.296;7.524;2023-02-22T06:42:29;3.10;;;1.47;;
21181;SDS011;10749;46.296;7.524;2023-02-22T06:44:54;2.97;;;1.40;;
21181;SDS011;10749;46.296;7.524;2023-02-22T06:47:19;5.60;;;1.60;;
21181;SDS011;10749;46.296;7.524;2023-02-22T06:49:50;1.50;;;1.10;;
21181;SDS011;10749;46.296;7.524;2023-02-22T06:52:16;1.77;;;1.47;;
21181;SDS011;10749;46.296;7.524;2023-02-22T06:54:42;3.13;;;1.47;;
21181;SDS011;10749;46.296;7.524;2023-02-22T06:57:07;5.43;;;1.40;;
21181;SDS011;10749;46.296;7.524;2023-02-22T06:59:34;3.37;;;1.43;;
21181;SDS011;10749;46.296;7.524;2023-02-22T07:01:59;3.10;;;1.40;;
21181;SDS011;10749;46.296;7.524;2023-02-22T07:04:24;4.07;;;1.27;;
21181;SDS011;10749;46.296;7.524;2023-02-22T07:06:50;3.67;;;1.20;;
21181;SDS011;10749;46.296;7.524;2023-02-22T07:09:16;3.30;;;1.40;;
21181;SDS011;10749;46.296;7.524;2023-02-22T07:11:42;2.83;;;1.60;;
21181;SDS011;10749;46.296;7.524;2023-02-22T07:14:07;4.00;;;1.47;;
21181;SDS011;10749;46.296;7.524;2023-02-22T07:16:33;2.90;;;1.23;;
21181;SDS011;10749;46.296;7.524;2023-02-22T07:18:59;2.87;;;1.73;;
21181;SDS011;10749;46.296;7.524;2023-02-22T07:21:25;4.20;;;1.63;;
21181;SDS011;10749;46.296;7.524;2023-02-22T07:23:54;3.57;;;1.60;;
21181;SDS011;10749;46.296;7.524;2023-02-22T07:26:21;6.40;;;1.87;;
21181;SDS011;10749;46.296;7.524;2023-02-22T07:28:47;3.33;;;1.60;;
21181;SDS011;10749;46.296;7.524;2023-02-22T07:31:13;7.20;;;1.90;;
21181;SDS011;10749;46.296;7.524;2023-02-22T07:33:40;4.97;;;1.97;;
21181;SDS011;10749;46.296;7.524;2023-02-22T07:36:06;6.73;;;1.60;;
21181;SDS011;10749;46.296;7.524;2023-02-22T07:38:32;5.63;;;1.67;;
21181;SDS011;10749;46.296;7.524;2023-02-22T07:40:57;3.27;;;1.60;;
21181;SDS011;10749;46.296;7.524;2023-02-22T07:43:23;3.30;;;1.77;;
21181;SDS011;10749;46.296;7.524;2023-02-22T07:45:52;4.73;;;1.80;;
21181;SDS011;10749;46.296;7.524;2023-02-22T07:48:20;8.03;;;2.23;;
21181;SDS011;10749;46.296;7.524;2023-02-22T07:50:47;3.67;;;1.67;;
21181;SDS011;10749;46.296;7.524;2023-02-22T07:53:19;3.87;;;1.97;;
21181;SDS011;10749;46.296;7.524;2023-02-22T07:55:47;4.90;;;1.73;;
21181;SDS011;10749;46.296;7.524;2023-02-22T07:58:16;4.50;;;1.70;;
21181;SDS011;10749;46.296;7.524;2023-02-22T08:00:43;4.80;;;2.17;;
21181;SDS011;10749;46.296;7.524;2023-02-22T08:03:09;6.17;;;2.10;;
21181;SDS011;10749;46.296;7.524;2023-02-22T08:05:38;7.63;;;1.70;;
21181;SDS011;10749;46.296;7.524;2023-02-22T08:08:05;5.83;;;2.03;;
21181;SDS011;10749;46.296;7.524;2023-02-22T08:10:32;3.37;;;1.90;;
21181;SDS011;10749;46.296;7.524;2023-02-22T08:12:59;6.40;;;2.50;;
21181;SDS011;10749;46.296;7.524;2023-02-22T08:15:29;6.73;;;2.50;;
21181;SDS011;10749;46.296;7.524;2023-02-22T08:17:57;3.97;;;2.77;;
21181;SDS011;10749;46.296;7.524;2023-02-22T08:20:23;4.70;;;2.33;;
21181;SDS011;10749;46.296;7.524;2023-02-22T08:22:50;8.10;;;2.70;;
21181;SDS011;10749;46.296;7.524;2023-02-22T08:25:16;5.13;;;2.67;;
21181;SDS011;10749;46.296;7.524;2023-02-22T08:27:42;9.40;;;3.13;;
21181;SDS011;10749;46.296;7.524;2023-02-22T08:30:09;5.90;;;2.90;;
21181;SDS011;10749;46.296;7.524;2023-02-22T08:32:40;7.10;;;2.30;;
21181;SDS011;10749;46.296;7.524;2023-02-22T08:35:05;2.53;;;1.20;;
21181;SDS011;10749;46.296;7.524;2023-02-22T08:37:31;1.93;;;1.20;;
21181;SDS011;10749;46.296;7.524;2023-02-22T08:39:56;2.30;;;1.10;;
21181;SDS011;10749;46.296;7.524;2023-02-22T08:42:21;1.90;;;1.07;;
21181;SDS011;10749;46.296;7.524;2023-02-22T08:44:47;2.47;;;1.13;;
21181;SDS011;10749;46.296;7.524;2023-02-22T08:47:13;1.40;;;1.10;;
21181;SDS011;10749;46.296;7.524;2023-02-22T08:49:38;3.07;;;1.10;;
21181;SDS011;10749;46.296;7.524;2023-02-22T08:52:03;3.57;;;1.40;;
21181;SDS011;10749;46.296;7.524;2023-02-22T08:54:29;2.53;;;1.40;;
21181;SDS011;10749;46.296;7.524;2023-02-22T08:56:54;3.07;;;1.40;;
21181;SDS011;10749;46.296;7.524;2023-02-22T08:59:19;2.93;;;1.30;;
21181;SDS011;10749;46.296;7.524;2023-02-22T09:01:44;4.50;;;1.43;;
21181;SDS011;10749;46.296;7.524;2023-02-22T09:04:10;5.63;;;1.47;;
21181;SDS011;10749;46.296;7.524;2023-02-22T09:06:35;8.37;;;1.73;;
21181;SDS011;10749;46.296;7.524;2023-02-22T09:09:00;3.93;;;1.50;;
21181;SDS011;10749;46.296;7.524;2023-02-22T09:11:26;7.17;;;2.33;;
21181;SDS011;10749;46.296;7.524;2023-02-22T09:13:52;1.97;;;1.20;;
21181;SDS011;10749;46.296;7.524;2023-02-22T09:16:17;3.50;;;1.80;;
21181;SDS011;10749;46.296;7.524;2023-02-22T09:18:42;11.73;;;2.13;;
21181;SDS011;10749;46.296;7.524;2023-02-22T09:21:08;10.50;;;1.93;;
21181;SDS011;10749;46.296;7.524;2023-02-22T09:23:33;6.03;;;1.83;;
21181;SDS011;10749;46.296;7.524;2023-02-22T09:25:58;6.00;;;1.73;;
21181;SDS011;10749;46.296;7.524;2023-02-22T09:28:24;5.40;;;1.97;;
21181;SDS011;10749;46.296;7.524;2023-02-22T09:30:52;9.23;;;2.10;;
21181;SDS011;10749;46.296;7.524;2023-02-22T09:33:18;4.63;;;1.73;;
21181;SDS011;10749;46.296;7.524;2023-02-22T09:35:45;6.33;;;1.60;;
21181;SDS011;10749;46.296;7.524;2023-02-22T09:38:14;3.80;;;1.90;;
21181;SDS011;10749;46.296;7.524;2023-02-22T09:40:48;4.70;;;1.70;;
21181;SDS011;10749;46.296;7.524;2023-02-22T09:46:11;5.13;;;1.50;;
21181;SDS011;10749;46.296;7.524;2023-02-22T09:51:22;8.17;;;2.57;;
21181;SDS011;10749;46.296;7.524;2023-02-22T09:53:52;9.40;;;2.87;;
21181;SDS011;10749;46.296;7.524;2023-02-22T09:56:22;6.97;;;2.43;;
21181;SDS011;10749;46.296;7.524;2023-02-22T09:58:51;8.83;;;2.37;;
21181;SDS011;10749;46.296;7.524;2023-02-22T10:01:28;2.90;;;1.90;;
21181;SDS011;10749;46.296;7.524;2023-02-22T10:09:37;6.80;;;2.30;;
21181;SDS011;10749;46.296;7.524;2023-02-22T10:12:11;7.17;;;2.40;;
21181;SDS011;10749;46.296;7.524;2023-02-22T10:15:05;5.33;;;1.83;;
21181;SDS011;10749;46.296;7.524;2023-02-22T10:25:55;6.47;;;1.70;;
21181;SDS011;10749;46.296;7.524;2023-02-22T10:28:34;6.57;;;1.63;;
21181;SDS011;10749;46.296;7.524;2023-02-22T10:31:05;7.17;;;2.00;;
21181;SDS011;10749;46.296;7.524;2023-02-22T10:33:37;5.97;;;2.00;;
21181;SDS011;10749;46.296;7.524;2023-02-22T10:36:05;4.27;;;2.20;;
21181;SDS011;10749;46.296;7.524;2023-02-22T10:38:40;5.07;;;2.10;;
21181;SDS011;10749;46.296;7.524;2023-02-22T10:43:55;5.53;;;2.40;;
21181;SDS011;10749;46.296;7.524;2023-02-22T10:46:21;5.73;;;2.10;;
21181;SDS011;10749;46.296;7.524;2023-02-22T10:48:50;4.20;;;2.13;;
21181;SDS011;10749;46.296;7.524;2023-02-22T10:51:18;4.77;;;1.83;;
21181;SDS011;10749;46.296;7.524;2023-02-22T10:53:44;4.37;;;1.90;;
21181;SDS011;10749;46.296;7.524;2023-02-22T10:56:22;8.47;;;2.37;;
21181;SDS011;10749;46.296;7.524;2023-02-22T10:58:51;4.80;;;2.00;;
21181;SDS011;10749;46.296;7.524;2023-02-22T11:01:37;4.83;;;1.50;;
21181;SDS011;10749;46.296;7.524;2023-02-22T11:06:46;4.40;;;1.57;;
21181;SDS011;10749;46.296;7.524;2023-02-22T11:09:14;2.17;;;1.43;;
21181;SDS011;10749;46.296;7.524;2023-02-22T11:11:47;3.57;;;1.33;;
21181;SDS011;10749;46.296;7.524;2023-02-22T11:14:23;2.57;;;1.50;;
21181;SDS011;10749;46.296;7.524;2023-02-22T11:16:53;4.83;;;1.60;;
21181;SDS011;10749;46.296;7.524;2023-02-22T11:19:21;2.23;;;1.37;;
21181;SDS011;10749;46.296;7.524;2023-02-22T11:21:50;3.83;;;1.50;;
21181;SDS011;10749;46.296;7.524;2023-02-22T11:24:19;3.67;;;1.53;;
21181;SDS011;10749;46.296;7.524;2023-02-22T11:26:49;5.53;;;2.03;;
21181;SDS011;10749;46.296;7.524;2023-02-22T11:31:48;2.83;;;1.63;;
21181;SDS011;10749;46.296;7.524;2023-02-22T11:34:56;3.63;;;1.57;;
21181;SDS011;10749;46.296;7.524;2023-02-22T11:37:14;2.60;;;1.60;;
21181;SDS011;10749;46.296;7.524;2023-02-22T11:39:40;2.47;;;1.43;;
21181;SDS011;10749;46.296;7.524;2023-02-22T11:42:21;3.60;;;1.63;;
21181;SDS011;10749;46.296;7.524;2023-02-22T11:44:48;3.13;;;1.70;;
21181;SDS011;10749;46.296;7.524;2023-02-22T11:47:20;4.00;;;1.63;;
21181;SDS011;10749;46.296;7.524;2023-02-22T11:49:47;2.33;;;1.43;;
21181;SDS011;10749;46.296;7.524;2023-02-22T11:55:15;3.40;;;1.50;;
21181;SDS011;10749;46.296;7.524;2023-02-22T11:58:17;3.83;;;1.67;;
21181;SDS011;10749;46.296;7.524;2023-02-22T12:00:57;4.70;;;1.80;;
21181;SDS011;10749;46.296;7.524;2023-02-22T12:03:50;2.97;;;1.83;;
21181;SDS011;10749;46.296;7.524;2023-02-22T12:12:33;3.93;;;2.13;;
21181;SDS011;10749;46.296;7.524;2023-02-22T12:18:55;3.67;;;2.13;;
21181;SDS011;10749;46.296;7.524;2023-02-22T12:20:56;2.97;;;2.27;;
21181;SDS011;10749;46.296;7.524;2023-02-22T12:26:47;3.83;;;2.00;;
21181;SDS011;10749;46.296;7.524;2023-02-22T12:31:55;4.97;;;2.73;;
21181;SDS011;10749;46.296;7.524;2023-02-22T12:36:53;6.73;;;2.60;;
21181;SDS011;10749;46.296;7.524;2023-02-22T12:42:19;5.93;;;2.95;;
21181;SDS011;10749;46.296;7.524;2023-02-22T12:44:53;3.17;;;2.70;;
21181;SDS011;10749;46.296;7.524;2023-02-22T12:47:28;5.15;;;2.72;;
21181;SDS011;10749;46.296;7.524;2023-02-22T12:50:00;6.67;;;2.90;;
21181;SDS011;10749;46.296;7.524;2023-02-22T12:52:43;7.20;;;2.92;;
21181;SDS011;10749;46.296;7.524;2023-02-22T13:00:36;5.80;;;2.88;;
21181;SDS011;10749;46.296;7.524;2023-02-22T13:11:20;8.85;;;3.38;;
21181;SDS011;10749;46.296;7.524;2023-02-22T13:19:37;4.53;;;3.53;;
21181;SDS011;10749;46.296;7.524;2023-02-22T13:25:21;5.00;;;3.97;;
21181;SDS011;10749;46.296;7.524;2023-02-22T13:31:05;7.03;;;4.10;;
21181;SDS011;10749;46.296;7.524;2023-02-22T13:33:48;9.05;;;4.70;;
21181;SDS011;10749;46.296;7.524;2023-02-22T13:50:28;7.78;;;4.97;;
21181;SDS011;10749;46.296;7.524;2023-02-22T13:53:02;8.35;;;5.97;;
21181;SDS011;10749;46.296;7.524;2023-02-22T13:55:34;8.55;;;5.85;;
21181;SDS011;10749;46.296;7.524;2023-02-22T13:58:04;11.73;;;6.40;;
21181;SDS011;10749;46.296;7.524;2023-02-22T14:08:52;10.10;;;6.50;;
21181;SDS011;10749;46.296;7.524;2023-02-22T14:10:56;10.05;;;6.70;;
21181;SDS011;10749;46.296;7.524;2023-02-22T14:18:38;13.30;;;8.50;;
21181;SDS011;10749;46.296;7.524;2023-02-22T14:21:06;11.93;;;8.60;;
21181;SDS011;10749;46.296;7.524;2023-02-22T14:28:50;12.80;;;8.50;;
21181;SDS011;10749;46.296;7.524;2023-02-22T14:31:23;12.43;;;8.63;;
21181;SDS011;10749;46.296;7.524;2023-02-22T14:33:56;17.83;;;9.07;;
21181;SDS011;10749;46.296;7.524;2023-02-22T14:36:25;13.23;;;8.23;;
21181;SDS011;10749;46.296;7.524;2023-02-22T14:38:57;12.70;;;7.68;;
21181;SDS011;10749;46.296;7.524;2023-02-22T14:41:29;14.13;;;8.47;;
21181;SDS011;10749;46.296;7.524;2023-02-22T14:43:56;11.57;;;8.30;;
21181;SDS011;10749;46.296;7.524;2023-02-22T14:46:26;13.45;;;8.98;;
21181;SDS011;10749;46.296;7.524;2023-02-22T14:48:59;16.93;;;9.00;;
21181;SDS011;10749;46.296;7.524;2023-02-22T14:51:40;10.73;;;8.35;;
21181;SDS011;10749;46.296;7.524;2023-02-22T14:54:20;11.07;;;8.13;;
21181;SDS011;10749;46.296;7.524;2023-02-22T14:57:02;14.70;;;8.30;;
21181;SDS011;10749;46.296;7.524;2023-02-22T15:00:01;16.25;;;9.45;;
21181;SDS011;10749;46.296;7.524;2023-02-22T15:02:47;13.95;;;9.88;;
21181;SDS011;10749;46.296;7.524;2023-02-22T15:05:16;15.20;;;9.60;;
21181;SDS011;10749;46.296;7.524;2023-02-22T15:07:53;14.50;;;10.20;;
21181;SDS011;10749;46.296;7.524;2023-02-22T15:10:56;13.07;;;9.47;;
21181;SDS011;10749;46.296;7.524;2023-02-22T15:13:25;14.93;;;10.20;;
21181;SDS011;10749;46.296;7.524;2023-02-22T15:15:55;18.67;;;11.13;;
21181;SDS011;10749;46.296;7.524;2023-02-22T15:21:08;16.07;;;9.83;;
21181;SDS011;10749;46.296;7.524;2023-02-22T15:23:45;17.40;;;10.10;;
21181;SDS011;10749;46.296;7.524;2023-02-22T15:26:32;12.50;;;9.60;;
21181;SDS011;10749;46.296;7.524;2023-02-22T15:29:01;15.37;;;9.87;;
21181;SDS011;10749;46.296;7.524;2023-02-22T15:31:33;18.97;;;9.90;;
21181;SDS011;10749;46.296;7.524;2023-02-22T15:34:14;14.80;;;9.63;;
21181;SDS011;10749;46.296;7.524;2023-02-22T15:36:46;13.17;;;9.10;;
21181;SDS011;10749;46.296;7.524;2023-02-22T15:41:43;15.40;;;10.13;;
21181;SDS011;10749;46.296;7.524;2023-02-22T15:44:09;16.37;;;10.03;;
21181;SDS011;10749;46.296;7.524;2023-02-22T15:46:35;14.67;;;9.90;;
21181;SDS011;10749;46.296;7.524;2023-02-22T15:49:23;14.40;;;9.87;;
21181;SDS011;10749;46.296;7.524;2023-02-22T15:52:00;14.47;;;9.80;;
21181;SDS011;10749;46.296;7.524;2023-02-22T15:54:29;15.97;;;10.07;;
21181;SDS011;10749;46.296;7.524;2023-02-22T15:57:01;17.00;;;10.67;;
21181;SDS011;10749;46.296;7.524;2023-02-22T15:59:26;18.23;;;9.80;;
21181;SDS011;10749;46.296;7.524;2023-02-22T16:01:57;14.23;;;10.13;;
21181;SDS011;10749;46.296;7.524;2023-02-22T16:04:24;27.63;;;14.47;;
21181;SDS011;10749;46.296;7.524;2023-02-22T16:07:01;15.80;;;9.70;;
21181;SDS011;10749;46.296;7.524;2023-02-22T16:09:31;19.47;;;9.57;;
21181;SDS011;10749;46.296;7.524;2023-02-22T16:14:44;19.60;;;10.20;;
21181;SDS011;10749;46.296;7.524;2023-02-22T16:17:11;13.70;;;9.50;;
21181;SDS011;10749;46.296;7.524;2023-02-22T16:22:43;16.70;;;9.43;;
21181;SDS011;10749;46.296;7.524;2023-02-22T16:27:52;15.93;;;10.40;;
21181;SDS011;10749;46.296;7.524;2023-02-22T16:32:56;16.23;;;10.67;;
21181;SDS011;10749;46.296;7.524;2023-02-22T16:35:26;17.93;;;10.73;;
21181;SDS011;10749;46.296;7.524;2023-02-22T16:38:02;15.13;;;10.80;;
21181;SDS011;10749;46.296;7.524;2023-02-22T16:40:33;13.70;;;9.70;;
21181;SDS011;10749;46.296;7.524;2023-02-22T16:43:03;16.20;;;9.63;;
21181;SDS011;10749;46.296;7.524;2023-02-22T16:45:31;15.97;;;9.47;;
21181;SDS011;10749;46.296;7.524;2023-02-22T16:47:57;15.67;;;9.17;;
21181;SDS011;10749;46.296;7.524;2023-02-22T16:50:23;15.03;;;9.40;;
21181;SDS011;10749;46.296;7.524;2023-02-22T16:52:49;15.17;;;9.07;;
21181;SDS011;10749;46.296;7.524;2023-02-22T16:55:18;14.00;;;9.30;;
21181;SDS011;10749;46.296;7.524;2023-02-22T16:57:44;13.13;;;9.63;;
21181;SDS011;10749;46.296;7.524;2023-02-22T17:00:22;14.57;;;10.13;;
21181;SDS011;10749;46.296;7.524;2023-02-22T17:02:55;18.73;;;12.83;;
21181;SDS011;10749;46.296;7.524;2023-02-22T17:05:26;18.23;;;12.77;;
21181;SDS011;10749;46.296;7.524;2023-02-22T17:07:51;20.27;;;11.63;;
21181;SDS011;10749;46.296;7.524;2023-02-22T17:10:17;17.23;;;11.70;;
21181;SDS011;10749;46.296;7.524;2023-02-22T17:12:46;14.10;;;10.90;;
21181;SDS011;10749;46.296;7.524;2023-02-22T17:15:19;16.40;;;10.73;;
21181;SDS011;10749;46.296;7.524;2023-02-22T17:17:46;15.53;;;11.33;;
21181;SDS011;10749;46.296;7.524;2023-02-22T17:20:12;17.30;;;11.17;;
21181;SDS011;10749;46.296;7.524;2023-02-22T17:22:37;16.47;;;11.17;;
21181;SDS011;10749;46.296;7.524;2023-02-22T17:25:10;15.23;;;10.70;;
21181;SDS011;10749;46.296;7.524;2023-02-22T17:27:44;18.07;;;11.37;;
21181;SDS011;10749;46.296;7.524;2023-02-22T17:30:09;17.10;;;11.63;;
21181;SDS011;10749;46.296;7.524;2023-02-22T17:32:37;20.90;;;11.53;;
21181;SDS011;10749;46.296;7.524;2023-02-22T17:35:03;17.83;;;11.97;;
21181;SDS011;10749;46.296;7.524;2023-02-22T17:37:28;14.97;;;10.57;;
21181;SDS011;10749;46.296;7.524;2023-02-22T17:39:54;14.10;;;9.70;;
21181;SDS011;10749;46.296;7.524;2023-02-22T17:42:19;16.37;;;10.23;;